sensor_id;sensor_type;location;lat;lon;timestamp;P1;durP1;ratioP1;P2;durP2;ratioP2
22034;SDS011;11181;51.002;4.356;2024-02-14T00:02:04;3.27;;;2.60;;
22034;SDS011;11181;51.002;4.356;2024-02-14T00:04:31;4.00;;;3.20;;
22034;SDS011;11181;51.002;4.356;2024-02-14T00:06:58;4.83;;;3.07;;
22034;SDS011;11181;51.002;4.356;2024-02-14T00:09:25;4.03;;;3.33;;
22034;SDS011;11181;51.002;4.356;2024-02-14T00:11:52;3.17;;;2.80;;
22034;SDS011;11181;51.002;4.356;2024-02-14T00:14:20;6.33;;;2.97;;
22034;SDS011;11181;51.002;4.356;2024-02-14T00:16:47;5.33;;;2.70;;
22034;SDS011;11181;51.002;4.356;2024-02-14T00:19:14;3.13;;;2.87;;
22034;SDS011;11181;51.002;4.356;2024-02-14T00:21:41;3.33;;;2.63;;
22034;SDS011;11181;51.002;4.356;2024-02-14T00:24:08;6.83;;;2.87;;
22034;SDS011;11181;51.002;4.356;2024-02-14T00:26:36;4.47;;;3.43;;
22034;SDS011;11181;51.002;4.356;2024-02-14T00:29:04;4.87;;;3.27;;
22034;SDS011;11181;51.002;4.356;2024-02-14T00:31:32;3.67;;;2.90;;
22034;SDS011;11181;51.002;4.356;2024-02-14T00:33:59;4.90;;;3.30;;
22034;SDS011;11181;51.002;4.356;2024-02-14T00:36:26;3.70;;;3.00;;
22034;SDS011;11181;51.002;4.356;2024-02-14T00:38:53;4.67;;;3.27;;
22034;SDS011;11181;51.002;4.356;2024-02-14T00:41:20;4.77;;;2.93;;
22034;SDS011;11181;51.002;4.356;2024-02-14T00:43:47;4.17;;;3.20;;
22034;SDS011;11181;51.002;4.356;2024-02-14T00:46:15;3.23;;;2.73;;
22034;SDS011;11181;51.002;4.356;2024-02-14T00:48:44;3.23;;;2.93;;
22034;SDS011;11181;51.002;4.356;2024-02-14T00:51:11;3.37;;;2.80;;
22034;SDS011;11181;51.002;4.356;2024-02-14T00:53:38;4.90;;;3.00;;
22034;SDS011;11181;51.002;4.356;2024-02-14T00:56:05;7.57;;;4.10;;
22034;SDS011;11181;51.002;4.356;2024-02-14T00:58:33;5.33;;;2.93;;
22034;SDS011;11181;51.002;4.356;2024-02-14T01:01:02;3.80;;;2.47;;
22034;SDS011;11181;51.002;4.356;2024-02-14T01:03:29;4.30;;;3.03;;
22034;SDS011;11181;51.002;4.356;2024-02-14T01:05:57;4.87;;;2.70;;
22034;SDS011;11181;51.002;4.356;2024-02-14T01:08:24;7.07;;;3.60;;
22034;SDS011;11181;51.002;4.356;2024-02-14T01:10:51;7.50;;;3.07;;
22034;SDS011;11181;51.002;4.356;2024-02-14T01:13:18;4.47;;;3.77;;
22034;SDS011;11181;51.002;4.356;2024-02-14T01:15:44;5.53;;;2.87;;
22034;SDS011;11181;51.002;4.356;2024-02-14T01:18:11;5.07;;;3.33;;
22034;SDS011;11181;51.002;4.356;2024-02-14T01:20:38;6.70;;;3.63;;
22034;SDS011;11181;51.002;4.356;2024-02-14T01:23:07;3.57;;;2.83;;
22034;SDS011;11181;51.002;4.356;2024-02-14T01:25:34;5.33;;;3.17;;
22034;SDS011;11181;51.002;4.356;2024-02-14T01:28:01;5.17;;;3.33;;
22034;SDS011;11181;51.002;4.356;2024-02-14T01:30:29;4.03;;;3.07;;
22034;SDS011;11181;51.002;4.356;2024-02-14T01:32:57;4.43;;;3.83;;
22034;SDS011;11181;51.002;4.356;2024-02-14T01:35:23;4.63;;;3.40;;
22034;SDS011;11181;51.002;4.356;2024-02-14T01:37:51;6.10;;;3.20;;
22034;SDS011;11181;51.002;4.356;2024-02-14T01:40:21;4.60;;;2.97;;
22034;SDS011;11181;51.002;4.356;2024-02-14T01:42:50;5.77;;;3.73;;
22034;SDS011;11181;51.002;4.356;2024-02-14T01:45:17;6.77;;;3.70;;
22034;SDS011;11181;51.002;4.356;2024-02-14T01:47:44;5.27;;;3.30;;
22034;SDS011;11181;51.002;4.356;2024-02-14T01:50:11;5.07;;;3.33;;
22034;SDS011;11181;51.002;4.356;2024-02-14T01:52:38;5.30;;;3.47;;
22034;SDS011;11181;51.002;4.356;2024-02-14T01:55:07;5.60;;;3.47;;
22034;SDS011;11181;51.002;4.356;2024-02-14T01:57:36;6.30;;;3.57;;
22034;SDS011;11181;51.002;4.356;2024-02-14T02:00:05;5.97;;;3.40;;
22034;SDS011;11181;51.002;4.356;2024-02-14T02:02:34;5.90;;;3.67;;
22034;SDS011;11181;51.002;4.356;2024-02-14T02:05:04;8.10;;;3.63;;
22034;SDS011;11181;51.002;4.356;2024-02-14T02:07:31;5.30;;;3.77;;
22034;SDS011;11181;51.002;4.356;2024-02-14T02:09:58;6.67;;;4.20;;
22034;SDS011;11181;51.002;4.356;2024-02-14T02:12:26;5.47;;;3.80;;
22034;SDS011;11181;51.002;4.356;2024-02-14T02:14:54;6.67;;;3.70;;
22034;SDS011;11181;51.002;4.356;2024-02-14T02:17:22;5.03;;;3.67;;
22034;SDS011;11181;51.002;4.356;2024-02-14T02:19:49;6.97;;;4.40;;
22034;SDS011;11181;51.002;4.356;2024-02-14T02:22:17;6.77;;;4.20;;
22034;SDS011;11181;51.002;4.356;2024-02-14T02:24:46;4.67;;;3.97;;
22034;SDS011;11181;51.002;4.356;2024-02-14T02:27:12;3.93;;;3.40;;
22034;SDS011;11181;51.002;4.356;2024-02-14T02:29:41;4.57;;;3.40;;
22034;SDS011;11181;51.002;4.356;2024-02-14T02:32:08;6.30;;;3.90;;
22034;SDS011;11181;51.002;4.356;2024-02-14T02:34:35;6.07;;;4.17;;
22034;SDS011;11181;51.002;4.356;2024-02-14T02:37:04;6.50;;;4.40;;
22034;SDS011;11181;51.002;4.356;2024-02-14T02:39:32;7.00;;;4.03;;
22034;SDS011;11181;51.002;4.356;2024-02-14T02:42:02;6.90;;;4.53;;
22034;SDS011;11181;51.002;4.356;2024-02-14T02:44:29;6.37;;;4.37;;
22034;SDS011;11181;51.002;4.356;2024-02-14T02:46:57;6.20;;;4.17;;
22034;SDS011;11181;51.002;4.356;2024-02-14T02:49:25;6.70;;;4.40;;
22034;SDS011;11181;51.002;4.356;2024-02-14T02:51:54;8.07;;;4.73;;
22034;SDS011;11181;51.002;4.356;2024-02-14T02:54:21;7.13;;;4.40;;
22034;SDS011;11181;51.002;4.356;2024-02-14T02:56:48;8.73;;;4.70;;
22034;SDS011;11181;51.002;4.356;2024-02-14T02:59:17;6.53;;;4.63;;
22034;SDS011;11181;51.002;4.356;2024-02-14T03:01:44;7.53;;;4.50;;
22034;SDS011;11181;51.002;4.356;2024-02-14T03:04:11;4.90;;;4.20;;
22034;SDS011;11181;51.002;4.356;2024-02-14T03:06:39;8.33;;;4.80;;
22034;SDS011;11181;51.002;4.356;2024-02-14T03:09:10;9.37;;;4.70;;
22034;SDS011;11181;51.002;4.356;2024-02-14T03:11:37;5.20;;;4.13;;
22034;SDS011;11181;51.002;4.356;2024-02-14T03:14:05;6.53;;;4.37;;
22034;SDS011;11181;51.002;4.356;2024-02-14T03:16:34;5.70;;;4.20;;
22034;SDS011;11181;51.002;4.356;2024-02-14T03:19:02;6.07;;;4.40;;
22034;SDS011;11181;51.002;4.356;2024-02-14T03:21:30;5.20;;;4.07;;
22034;SDS011;11181;51.002;4.356;2024-02-14T03:23:58;5.83;;;4.70;;
22034;SDS011;11181;51.002;4.356;2024-02-14T03:26:25;7.17;;;5.00;;
22034;SDS011;11181;51.002;4.356;2024-02-14T03:28:52;9.40;;;4.90;;
22034;SDS011;11181;51.002;4.356;2024-02-14T03:31:19;6.53;;;5.20;;
22034;SDS011;11181;51.002;4.356;2024-02-14T03:33:51;7.13;;;5.00;;
22034;SDS011;11181;51.002;4.356;2024-02-14T03:36:18;8.13;;;5.50;;
22034;SDS011;11181;51.002;4.356;2024-02-14T03:38:45;6.97;;;4.57;;
22034;SDS011;11181;51.002;4.356;2024-02-14T03:41:12;7.57;;;5.50;;
22034;SDS011;11181;51.002;4.356;2024-02-14T03:43:39;5.67;;;4.93;;
22034;SDS011;11181;51.002;4.356;2024-02-14T03:46:06;7.90;;;5.00;;
22034;SDS011;11181;51.002;4.356;2024-02-14T03:48:33;9.90;;;6.33;;
22034;SDS011;11181;51.002;4.356;2024-02-14T03:51:01;12.03;;;5.40;;
22034;SDS011;11181;51.002;4.356;2024-02-14T03:53:29;8.10;;;5.00;;
22034;SDS011;11181;51.002;4.356;2024-02-14T03:55:58;6.60;;;4.70;;
22034;SDS011;11181;51.002;4.356;2024-02-14T03:58:25;7.97;;;5.10;;
22034;SDS011;11181;51.002;4.356;2024-02-14T04:00:52;9.10;;;4.63;;
22034;SDS011;11181;51.002;4.356;2024-02-14T04:03:19;6.03;;;4.47;;
22034;SDS011;11181;51.002;4.356;2024-02-14T04:05:46;7.07;;;4.90;;
22034;SDS011;11181;51.002;4.356;2024-02-14T04:08:14;7.07;;;4.17;;
22034;SDS011;11181;51.002;4.356;2024-02-14T04:10:41;6.10;;;4.20;;
22034;SDS011;11181;51.002;4.356;2024-02-14T04:13:08;8.37;;;4.60;;
22034;SDS011;11181;51.002;4.356;2024-02-14T04:15:36;5.60;;;4.43;;
22034;SDS011;11181;51.002;4.356;2024-02-14T04:18:02;9.33;;;5.00;;
22034;SDS011;11181;51.002;4.356;2024-02-14T04:20:31;8.80;;;4.90;;
22034;SDS011;11181;51.002;4.356;2024-02-14T04:22:58;4.97;;;4.50;;
22034;SDS011;11181;51.002;4.356;2024-02-14T04:25:26;9.33;;;4.73;;
22034;SDS011;11181;51.002;4.356;2024-02-14T04:27:55;8.63;;;4.33;;
22034;SDS011;11181;51.002;4.356;2024-02-14T04:30:22;6.63;;;5.50;;
22034;SDS011;11181;51.002;4.356;2024-02-14T04:32:52;9.40;;;4.83;;
22034;SDS011;11181;51.002;4.356;2024-02-14T04:35:19;5.63;;;4.47;;
22034;SDS011;11181;51.002;4.356;2024-02-14T04:37:46;7.37;;;4.90;;
22034;SDS011;11181;51.002;4.356;2024-02-14T04:40:14;8.40;;;5.07;;
22034;SDS011;11181;51.002;4.356;2024-02-14T04:42:44;6.63;;;4.77;;
22034;SDS011;11181;51.002;4.356;2024-02-14T04:45:11;7.00;;;4.80;;
22034;SDS011;11181;51.002;4.356;2024-02-14T04:47:38;5.77;;;4.80;;
22034;SDS011;11181;51.002;4.356;2024-02-14T04:50:06;5.80;;;4.47;;
22034;SDS011;11181;51.002;4.356;2024-02-14T04:52:33;8.03;;;5.13;;
22034;SDS011;11181;51.002;4.356;2024-02-14T04:55:00;9.23;;;5.03;;
22034;SDS011;11181;51.002;4.356;2024-02-14T04:57:27;5.57;;;4.47;;
22034;SDS011;11181;51.002;4.356;2024-02-14T04:59:55;7.87;;;4.53;;
22034;SDS011;11181;51.002;4.356;2024-02-14T05:02:24;7.27;;;5.03;;
22034;SDS011;11181;51.002;4.356;2024-02-14T05:04:51;10.53;;;5.63;;
22034;SDS011;11181;51.002;4.356;2024-02-14T05:07:19;6.67;;;4.20;;
22034;SDS011;11181;51.002;4.356;2024-02-14T05:09:46;9.70;;;4.70;;
22034;SDS011;11181;51.002;4.356;2024-02-14T05:12:15;7.50;;;4.70;;
22034;SDS011;11181;51.002;4.356;2024-02-14T05:14:42;9.87;;;4.83;;
22034;SDS011;11181;51.002;4.356;2024-02-14T05:17:10;7.67;;;4.70;;
22034;SDS011;11181;51.002;4.356;2024-02-14T05:19:37;7.67;;;5.03;;
22034;SDS011;11181;51.002;4.356;2024-02-14T05:22:04;6.57;;;4.37;;
22034;SDS011;11181;51.002;4.356;2024-02-14T05:24:31;7.73;;;4.43;;
22034;SDS011;11181;51.002;4.356;2024-02-14T05:26:58;10.07;;;5.27;;
22034;SDS011;11181;51.002;4.356;2024-02-14T05:29:25;6.53;;;4.23;;
22034;SDS011;11181;51.002;4.356;2024-02-14T05:31:51;8.03;;;5.00;;
22034;SDS011;11181;51.002;4.356;2024-02-14T05:34:21;8.23;;;5.30;;
22034;SDS011;11181;51.002;4.356;2024-02-14T05:36:48;8.33;;;4.83;;
22034;SDS011;11181;51.002;4.356;2024-02-14T05:39:16;6.63;;;5.10;;
22034;SDS011;11181;51.002;4.356;2024-02-14T05:41:43;10.10;;;5.93;;
22034;SDS011;11181;51.002;4.356;2024-02-14T05:44:09;6.60;;;4.80;;
22034;SDS011;11181;51.002;4.356;2024-02-14T05:46:36;7.63;;;4.90;;
22034;SDS011;11181;51.002;4.356;2024-02-14T05:49:03;11.73;;;6.00;;
22034;SDS011;11181;51.002;4.356;2024-02-14T05:51:32;10.40;;;5.30;;
22034;SDS011;11181;51.002;4.356;2024-02-14T05:53:59;6.57;;;4.73;;
22034;SDS011;11181;51.002;4.356;2024-02-14T05:56:26;6.00;;;5.03;;
22034;SDS011;11181;51.002;4.356;2024-02-14T05:58:53;11.67;;;5.47;;
22034;SDS011;11181;51.002;4.356;2024-02-14T06:01:19;5.33;;;4.33;;
22034;SDS011;11181;51.002;4.356;2024-02-14T06:03:46;6.33;;;5.23;;
22034;SDS011;11181;51.002;4.356;2024-02-14T06:06:13;8.90;;;4.90;;
22034;SDS011;11181;51.002;4.356;2024-02-14T06:08:42;7.53;;;4.77;;
22034;SDS011;11181;51.002;4.356;2024-02-14T06:11:09;5.97;;;4.60;;
22034;SDS011;11181;51.002;4.356;2024-02-14T06:13:37;7.53;;;4.80;;
22034;SDS011;11181;51.002;4.356;2024-02-14T06:16:04;8.70;;;4.63;;
22034;SDS011;11181;51.002;4.356;2024-02-14T06:18:33;6.60;;;4.83;;
22034;SDS011;11181;51.002;4.356;2024-02-14T06:21:00;7.33;;;4.00;;
22034;SDS011;11181;51.002;4.356;2024-02-14T06:23:27;6.77;;;4.20;;
22034;SDS011;11181;51.002;4.356;2024-02-14T06:25:55;8.37;;;4.57;;
22034;SDS011;11181;51.002;4.356;2024-02-14T06:28:22;7.20;;;4.50;;
22034;SDS011;11181;51.002;4.356;2024-02-14T06:30:49;12.67;;;4.60;;
22034;SDS011;11181;51.002;4.356;2024-02-14T06:33:16;5.97;;;4.73;;
22034;SDS011;11181;51.002;4.356;2024-02-14T06:35:43;9.30;;;4.50;;
22034;SDS011;11181;51.002;4.356;2024-02-14T06:38:10;6.13;;;4.67;;
22034;SDS011;11181;51.002;4.356;2024-02-14T06:40:37;8.30;;;4.20;;
22034;SDS011;11181;51.002;4.356;2024-02-14T06:43:06;6.00;;;4.53;;
22034;SDS011;11181;51.002;4.356;2024-02-14T06:45:33;7.83;;;4.40;;
22034;SDS011;11181;51.002;4.356;2024-02-14T06:48:00;7.67;;;4.50;;
22034;SDS011;11181;51.002;4.356;2024-02-14T06:50:27;7.37;;;4.17;;
22034;SDS011;11181;51.002;4.356;2024-02-14T06:52:54;8.70;;;4.83;;
22034;SDS011;11181;51.002;4.356;2024-02-14T06:55:24;6.37;;;4.27;;
22034;SDS011;11181;51.002;4.356;2024-02-14T06:57:52;6.07;;;4.70;;
22034;SDS011;11181;51.002;4.356;2024-02-14T07:00:20;9.80;;;5.57;;
22034;SDS011;11181;51.002;4.356;2024-02-14T07:02:47;8.47;;;4.63;;
22034;SDS011;11181;51.002;4.356;2024-02-14T07:05:14;9.30;;;4.53;;
22034;SDS011;11181;51.002;4.356;2024-02-14T07:07:41;5.70;;;4.03;;
22034;SDS011;11181;51.002;4.356;2024-02-14T07:10:08;9.07;;;4.67;;
22034;SDS011;11181;51.002;4.356;2024-02-14T07:12:36;5.30;;;4.20;;
22034;SDS011;11181;51.002;4.356;2024-02-14T07:15:03;7.53;;;4.57;;
22034;SDS011;11181;51.002;4.356;2024-02-14T07:17:32;10.93;;;3.93;;
22034;SDS011;11181;51.002;4.356;2024-02-14T07:19:59;6.60;;;4.40;;
22034;SDS011;11181;51.002;4.356;2024-02-14T07:22:27;8.23;;;4.33;;
22034;SDS011;11181;51.002;4.356;2024-02-14T07:24:55;7.40;;;4.27;;
22034;SDS011;11181;51.002;4.356;2024-02-14T07:27:22;8.40;;;4.70;;
22034;SDS011;11181;51.002;4.356;2024-02-14T07:29:50;6.00;;;4.50;;
22034;SDS011;11181;51.002;4.356;2024-02-14T07:32:17;8.60;;;4.23;;
22034;SDS011;11181;51.002;4.356;2024-02-14T07:34:45;9.50;;;4.87;;
22034;SDS011;11181;51.002;4.356;2024-02-14T07:37:13;6.57;;;3.80;;
22034;SDS011;11181;51.002;4.356;2024-02-14T07:39:43;7.03;;;4.03;;
22034;SDS011;11181;51.002;4.356;2024-02-14T07:42:11;9.67;;;4.50;;
22034;SDS011;11181;51.002;4.356;2024-02-14T07:44:38;10.53;;;4.53;;
22034;SDS011;11181;51.002;4.356;2024-02-14T07:47:05;5.47;;;4.23;;
22034;SDS011;11181;51.002;4.356;2024-02-14T07:49:32;8.47;;;4.00;;
22034;SDS011;11181;51.002;4.356;2024-02-14T07:52:00;7.97;;;4.07;;
22034;SDS011;11181;51.002;4.356;2024-02-14T07:54:28;7.50;;;4.70;;
22034;SDS011;11181;51.002;4.356;2024-02-14T07:56:55;7.73;;;4.30;;
22034;SDS011;11181;51.002;4.356;2024-02-14T07:59:22;7.60;;;3.60;;
22034;SDS011;11181;51.002;4.356;2024-02-14T08:01:49;7.47;;;3.90;;
22034;SDS011;11181;51.002;4.356;2024-02-14T08:04:16;5.00;;;3.43;;
22034;SDS011;11181;51.002;4.356;2024-02-14T08:06:44;8.30;;;4.97;;
22034;SDS011;11181;51.002;4.356;2024-02-14T08:09:15;8.10;;;3.87;;
22034;SDS011;11181;51.002;4.356;2024-02-14T08:11:42;8.83;;;4.03;;
22034;SDS011;11181;51.002;4.356;2024-02-14T08:14:09;13.13;;;5.00;;
22034;SDS011;11181;51.002;4.356;2024-02-14T08:16:37;7.87;;;4.37;;
22034;SDS011;11181;51.002;4.356;2024-02-14T08:19:04;10.57;;;5.07;;
22034;SDS011;11181;51.002;4.356;2024-02-14T08:21:31;8.70;;;4.70;;
22034;SDS011;11181;51.002;4.356;2024-02-14T08:23:58;6.13;;;4.00;;
22034;SDS011;11181;51.002;4.356;2024-02-14T08:26:26;10.67;;;4.40;;
22034;SDS011;11181;51.002;4.356;2024-02-14T08:28:53;9.27;;;4.50;;
22034;SDS011;11181;51.002;4.356;2024-02-14T08:31:21;8.73;;;4.77;;
22034;SDS011;11181;51.002;4.356;2024-02-14T08:33:48;8.03;;;5.07;;
22034;SDS011;11181;51.002;4.356;2024-02-14T08:36:15;7.93;;;4.77;;
22034;SDS011;11181;51.002;4.356;2024-02-14T08:38:44;10.20;;;4.83;;
22034;SDS011;11181;51.002;4.356;2024-02-14T08:41:11;9.37;;;4.60;;
22034;SDS011;11181;51.002;4.356;2024-02-14T08:43:40;7.57;;;4.90;;
22034;SDS011;11181;51.002;4.356;2024-02-14T08:46:09;8.40;;;4.40;;
22034;SDS011;11181;51.002;4.356;2024-02-14T08:48:36;9.07;;;4.03;;
22034;SDS011;11181;51.002;4.356;2024-02-14T08:51:07;9.27;;;4.67;;
22034;SDS011;11181;51.002;4.356;2024-02-14T08:53:34;8.53;;;5.00;;
22034;SDS011;11181;51.002;4.356;2024-02-14T08:56:01;8.13;;;4.13;;
22034;SDS011;11181;51.002;4.356;2024-02-14T08:58:28;6.67;;;4.43;;
22034;SDS011;11181;51.002;4.356;2024-02-14T09:00:56;6.57;;;4.37;;
22034;SDS011;11181;51.002;4.356;2024-02-14T09:03:23;8.40;;;4.90;;
22034;SDS011;11181;51.002;4.356;2024-02-14T09:05:50;10.30;;;5.03;;
22034;SDS011;11181;51.002;4.356;2024-02-14T09:08:18;8.77;;;4.73;;
22034;SDS011;11181;51.002;4.356;2024-02-14T09:10:45;8.77;;;4.73;;
22034;SDS011;11181;51.002;4.356;2024-02-14T09:13:13;5.77;;;4.60;;
22034;SDS011;11181;51.002;4.356;2024-02-14T09:15:40;8.53;;;4.17;;
22034;SDS011;11181;51.002;4.356;2024-02-14T09:18:08;6.63;;;4.63;;
22034;SDS011;11181;51.002;4.356;2024-02-14T09:20:35;8.30;;;3.90;;
22034;SDS011;11181;51.002;4.356;2024-02-14T09:23:03;5.63;;;3.63;;
22034;SDS011;11181;51.002;4.356;2024-02-14T09:25:30;5.87;;;3.93;;
22034;SDS011;11181;51.002;4.356;2024-02-14T09:27:57;7.53;;;4.17;;
22034;SDS011;11181;51.002;4.356;2024-02-14T09:30:24;6.40;;;4.40;;
22034;SDS011;11181;51.002;4.356;2024-02-14T09:32:51;7.50;;;4.60;;
22034;SDS011;11181;51.002;4.356;2024-02-14T09:35:19;7.43;;;4.67;;
22034;SDS011;11181;51.002;4.356;2024-02-14T09:37:46;7.17;;;5.20;;
22034;SDS011;11181;51.002;4.356;2024-02-14T09:40:13;6.63;;;4.30;;
22034;SDS011;11181;51.002;4.356;2024-02-14T09:42:43;7.17;;;4.10;;
22034;SDS011;11181;51.002;4.356;2024-02-14T09:45:11;8.20;;;4.63;;
22034;SDS011;11181;51.002;4.356;2024-02-14T09:47:38;6.43;;;4.30;;
22034;SDS011;11181;51.002;4.356;2024-02-14T09:50:07;5.50;;;4.23;;
22034;SDS011;11181;51.002;4.356;2024-02-14T09:52:37;7.97;;;4.13;;
22034;SDS011;11181;51.002;4.356;2024-02-14T09:55:04;6.50;;;4.00;;
22034;SDS011;11181;51.002;4.356;2024-02-14T09:57:32;6.97;;;4.30;;
22034;SDS011;11181;51.002;4.356;2024-02-14T10:00:00;5.30;;;4.07;;
22034;SDS011;11181;51.002;4.356;2024-02-14T10:02:31;6.87;;;3.70;;
22034;SDS011;11181;51.002;4.356;2024-02-14T10:04:58;7.20;;;3.50;;
22034;SDS011;11181;51.002;4.356;2024-02-14T10:07:25;5.53;;;3.77;;
22034;SDS011;11181;51.002;4.356;2024-02-14T10:09:53;4.70;;;3.40;;
22034;SDS011;11181;51.002;4.356;2024-02-14T10:12:20;5.00;;;3.67;;
22034;SDS011;11181;51.002;4.356;2024-02-14T10:14:47;5.27;;;3.77;;
22034;SDS011;11181;51.002;4.356;2024-02-14T10:17:17;4.97;;;3.73;;
22034;SDS011;11181;51.002;4.356;2024-02-14T10:19:54;6.67;;;3.37;;
22034;SDS011;11181;51.002;4.356;2024-02-14T10:22:22;6.77;;;4.57;;
22034;SDS011;11181;51.002;4.356;2024-02-14T10:24:50;4.97;;;3.80;;
22034;SDS011;11181;51.002;4.356;2024-02-14T10:27:18;5.17;;;3.10;;
22034;SDS011;11181;51.002;4.356;2024-02-14T10:29:46;4.67;;;3.73;;
22034;SDS011;11181;51.002;4.356;2024-02-14T10:32:14;4.00;;;2.90;;
22034;SDS011;11181;51.002;4.356;2024-02-14T10:34:42;3.33;;;2.80;;
22034;SDS011;11181;51.002;4.356;2024-02-14T10:37:13;3.83;;;2.97;;
22034;SDS011;11181;51.002;4.356;2024-02-14T10:39:41;4.50;;;3.20;;
22034;SDS011;11181;51.002;4.356;2024-02-14T10:42:09;3.30;;;2.87;;
22034;SDS011;11181;51.002;4.356;2024-02-14T10:44:37;2.50;;;2.30;;
22034;SDS011;11181;51.002;4.356;2024-02-14T10:47:05;4.43;;;3.10;;
22034;SDS011;11181;51.002;4.356;2024-02-14T10:49:37;4.70;;;2.83;;
22034;SDS011;11181;51.002;4.356;2024-02-14T10:52:06;3.10;;;2.50;;
22034;SDS011;11181;51.002;4.356;2024-02-14T10:54:35;4.30;;;2.83;;
22034;SDS011;11181;51.002;4.356;2024-02-14T10:57:04;3.77;;;3.00;;
22034;SDS011;11181;51.002;4.356;2024-02-14T10:59:37;3.07;;;2.37;;
22034;SDS011;11181;51.002;4.356;2024-02-14T11:02:10;4.13;;;2.73;;
22034;SDS011;11181;51.002;4.356;2024-02-14T11:04:38;3.27;;;2.73;;
22034;SDS011;11181;51.002;4.356;2024-02-14T11:07:08;3.50;;;2.80;;
22034;SDS011;11181;51.002;4.356;2024-02-14T11:09:36;3.90;;;2.90;;
22034;SDS011;11181;51.002;4.356;2024-02-14T11:12:04;2.73;;;2.37;;
22034;SDS011;11181;51.002;4.356;2024-02-14T11:14:34;2.67;;;2.43;;
22034;SDS011;11181;51.002;4.356;2024-02-14T11:17:08;2.90;;;2.43;;
22034;SDS011;11181;51.002;4.356;2024-02-14T11:19:35;3.20;;;2.53;;
22034;SDS011;11181;51.002;4.356;2024-02-14T11:22:12;3.73;;;3.10;;
22034;SDS011;11181;51.002;4.356;2024-02-14T11:24:45;3.43;;;2.90;;
22034;SDS011;11181;51.002;4.356;2024-02-14T11:27:12;2.80;;;2.47;;
22034;SDS011;11181;51.002;4.356;2024-02-14T11:29:39;3.13;;;2.67;;
22034;SDS011;11181;51.002;4.356;2024-02-14T11:32:08;4.93;;;2.63;;
22034;SDS011;11181;51.002;4.356;2024-02-14T11:34:38;3.70;;;3.17;;
22034;SDS011;11181;51.002;4.356;2024-02-14T11:37:05;4.53;;;2.57;;
22034;SDS011;11181;51.002;4.356;2024-02-14T11:39:32;3.20;;;2.90;;
22034;SDS011;11181;51.002;4.356;2024-02-14T11:42:00;3.27;;;2.97;;
22034;SDS011;11181;51.002;4.356;2024-02-14T11:44:27;3.47;;;3.10;;
22034;SDS011;11181;51.002;4.356;2024-02-14T11:46:53;4.63;;;3.43;;
22034;SDS011;11181;51.002;4.356;2024-02-14T11:49:23;4.70;;;3.47;;
22034;SDS011;11181;51.002;4.356;2024-02-14T11:51:50;5.43;;;3.70;;
22034;SDS011;11181;51.002;4.356;2024-02-14T11:54:18;4.53;;;3.63;;
22034;SDS011;11181;51.002;4.356;2024-02-14T11:56:47;4.90;;;3.87;;
22034;SDS011;11181;51.002;4.356;2024-02-14T11:59:14;4.77;;;3.80;;
22034;SDS011;11181;51.002;4.356;2024-02-14T12:01:44;6.27;;;3.73;;
22034;SDS011;11181;51.002;4.356;2024-02-14T12:04:13;4.20;;;3.40;;
22034;SDS011;11181;51.002;4.356;2024-02-14T12:06:42;7.03;;;4.00;;
22034;SDS011;11181;51.002;4.356;2024-02-14T12:09:09;6.30;;;3.63;;
22034;SDS011;11181;51.002;4.356;2024-02-14T12:11:38;5.23;;;3.83;;
22034;SDS011;11181;51.002;4.356;2024-02-14T12:14:07;6.27;;;3.37;;
22034;SDS011;11181;51.002;4.356;2024-02-14T12:16:35;4.17;;;3.67;;
22034;SDS011;11181;51.002;4.356;2024-02-14T12:19:04;6.37;;;4.17;;
22034;SDS011;11181;51.002;4.356;2024-02-14T12:21:34;7.37;;;4.00;;
22034;SDS011;11181;51.002;4.356;2024-02-14T12:24:03;6.00;;;3.90;;
22034;SDS011;11181;51.002;4.356;2024-02-14T12:26:31;5.30;;;3.87;;
22034;SDS011;11181;51.002;4.356;2024-02-14T12:29:00;6.93;;;3.90;;
22034;SDS011;11181;51.002;4.356;2024-02-14T12:31:28;7.83;;;3.53;;
22034;SDS011;11181;51.002;4.356;2024-02-14T12:33:56;6.57;;;4.00;;
22034;SDS011;11181;51.002;4.356;2024-02-14T12:36:24;7.13;;;3.67;;
22034;SDS011;11181;51.002;4.356;2024-02-14T12:38:52;7.33;;;3.60;;
22034;SDS011;11181;51.002;4.356;2024-02-14T12:41:21;6.83;;;4.47;;
22034;SDS011;11181;51.002;4.356;2024-02-14T12:43:50;5.97;;;4.47;;
22034;SDS011;11181;51.002;4.356;2024-02-14T12:46:18;9.10;;;4.57;;
22034;SDS011;11181;51.002;4.356;2024-02-14T12:48:45;5.03;;;3.57;;
22034;SDS011;11181;51.002;4.356;2024-02-14T12:51:13;6.07;;;3.93;;
22034;SDS011;11181;51.002;4.356;2024-02-14T12:53:40;8.97;;;3.77;;
22034;SDS011;11181;51.002;4.356;2024-02-14T12:56:07;5.43;;;3.67;;
22034;SDS011;11181;51.002;4.356;2024-02-14T12:58:35;5.20;;;3.70;;
22034;SDS011;11181;51.002;4.356;2024-02-14T13:01:03;7.40;;;3.93;;
22034;SDS011;11181;51.002;4.356;2024-02-14T13:03:31;5.37;;;3.73;;
22034;SDS011;11181;51.002;4.356;2024-02-14T13:05:58;6.70;;;4.10;;
22034;SDS011;11181;51.002;4.356;2024-02-14T13:08:26;5.43;;;3.63;;
22034;SDS011;11181;51.002;4.356;2024-02-14T13:10:54;4.37;;;3.90;;
22034;SDS011;11181;51.002;4.356;2024-02-14T13:13:22;6.17;;;3.70;;
22034;SDS011;11181;51.002;4.356;2024-02-14T13:15:50;7.30;;;3.90;;
22034;SDS011;11181;51.002;4.356;2024-02-14T13:18:17;4.20;;;3.57;;
22034;SDS011;11181;51.002;4.356;2024-02-14T13:20:44;5.23;;;3.60;;
22034;SDS011;11181;51.002;4.356;2024-02-14T13:23:11;6.17;;;3.67;;
22034;SDS011;11181;51.002;4.356;2024-02-14T13:25:39;6.17;;;3.27;;
22034;SDS011;11181;51.002;4.356;2024-02-14T13:28:06;7.37;;;4.03;;
22034;SDS011;11181;51.002;4.356;2024-02-14T13:30:34;6.43;;;3.97;;
22034;SDS011;11181;51.002;4.356;2024-02-14T13:33:02;4.83;;;3.27;;
22034;SDS011;11181;51.002;4.356;2024-02-14T13:35:29;5.87;;;2.87;;
22034;SDS011;11181;51.002;4.356;2024-02-14T13:37:56;4.53;;;3.57;;
22034;SDS011;11181;51.002;4.356;2024-02-14T13:40:24;3.50;;;2.63;;
22034;SDS011;11181;51.002;4.356;2024-02-14T13:42:51;5.23;;;2.17;;
22034;SDS011;11181;51.002;4.356;2024-02-14T13:45:18;4.63;;;2.87;;
22034;SDS011;11181;51.002;4.356;2024-02-14T13:47:45;2.97;;;2.33;;
22034;SDS011;11181;51.002;4.356;2024-02-14T13:50:13;3.97;;;2.50;;
22034;SDS011;11181;51.002;4.356;2024-02-14T13:52:40;5.13;;;2.47;;
22034;SDS011;11181;51.002;4.356;2024-02-14T13:55:07;5.00;;;2.70;;
22034;SDS011;11181;51.002;4.356;2024-02-14T13:57:36;2.70;;;2.30;;
22034;SDS011;11181;51.002;4.356;2024-02-14T14:00:04;3.60;;;2.43;;
22034;SDS011;11181;51.002;4.356;2024-02-14T14:02:34;3.87;;;2.07;;
22034;SDS011;11181;51.002;4.356;2024-02-14T14:05:02;2.77;;;2.10;;
22034;SDS011;11181;51.002;4.356;2024-02-14T14:07:31;4.50;;;2.40;;
22034;SDS011;11181;51.002;4.356;2024-02-14T14:09:58;6.63;;;3.03;;
22034;SDS011;11181;51.002;4.356;2024-02-14T14:12:25;4.70;;;2.77;;
22034;SDS011;11181;51.002;4.356;2024-02-14T14:14:52;5.03;;;2.57;;
22034;SDS011;11181;51.002;4.356;2024-02-14T14:17:19;2.70;;;2.23;;
22034;SDS011;11181;51.002;4.356;2024-02-14T14:19:46;3.87;;;2.30;;
22034;SDS011;11181;51.002;4.356;2024-02-14T14:22:12;3.40;;;2.33;;
22034;SDS011;11181;51.002;4.356;2024-02-14T14:24:41;2.87;;;2.10;;
22034;SDS011;11181;51.002;4.356;2024-02-14T14:27:08;4.73;;;2.57;;
22034;SDS011;11181;51.002;4.356;2024-02-14T14:29:38;3.83;;;1.67;;
22034;SDS011;11181;51.002;4.356;2024-02-14T14:32:06;4.13;;;2.20;;
22034;SDS011;11181;51.002;4.356;2024-02-14T14:34:33;3.60;;;2.10;;
22034;SDS011;11181;51.002;4.356;2024-02-14T14:37:01;4.80;;;2.50;;
22034;SDS011;11181;51.002;4.356;2024-02-14T14:39:28;5.33;;;2.53;;
22034;SDS011;11181;51.002;4.356;2024-02-14T14:41:58;6.37;;;2.40;;
22034;SDS011;11181;51.002;4.356;2024-02-14T14:44:25;6.10;;;3.13;;
22034;SDS011;11181;51.002;4.356;2024-02-14T14:46:52;4.70;;;2.10;;
22034;SDS011;11181;51.002;4.356;2024-02-14T14:49:19;5.43;;;2.67;;
22034;SDS011;11181;51.002;4.356;2024-02-14T14:51:46;4.60;;;2.30;;